createdAt,value
2022-07-29T00:00:56.546Z,100.00
2022-07-29T00:03:23.183Z,100.00
2022-07-29T00:05:49.748Z,100.00
2022-07-29T00:08:16.550Z,100.00
2022-07-29T00:10:43.460Z,100.00
2022-07-29T00:13:10.028Z,100.00
2022-07-29T00:15:36.472Z,100.00
2022-07-29T00:18:02.966Z,100.00
2022-07-29T00:20:29.474Z,100.00
2022-07-29T00:22:55.964Z,100.00
2022-07-29T00:25:22.703Z,100.00
2022-07-29T00:27:49.147Z,100.00
2022-07-29T00:30:15.780Z,100.00
2022-07-29T00:32:42.477Z,100.00
2022-07-29T00:35:27.784Z,100.00
2022-07-29T00:37:54.303Z,100.00
2022-07-29T00:40:23.550Z,100.00
2022-07-29T00:42:51.655Z,100.00
2022-07-29T00:45:18.874Z,100.00
2022-07-29T00:47:46.294Z,100.00
2022-07-29T00:50:14.179Z,100.00
2022-07-29T00:52:42.474Z,100.00
2022-07-29T00:55:12.049Z,100.00
2022-07-29T00:57:39.657Z,100.00
2022-07-29T01:00:08.628Z,100.00
2022-07-29T01:02:35.212Z,100.00
2022-07-29T01:05:03.018Z,100.00
2022-07-29T01:07:31.103Z,100.00
2022-07-29T01:09:58.207Z,100.00
2022-07-29T01:12:27.835Z,100.00
2022-07-29T01:14:56.544Z,100.00
2022-07-29T01:17:33.402Z,100.00
2022-07-29T01:20:23.327Z,100.00
2022-07-29T01:23:10.611Z,100.00
2022-07-29T01:25:48.582Z,100.00
2022-07-29T01:28:38.282Z,100.00
2022-07-29T01:31:07.789Z,100.00
2022-07-29T01:33:50.512Z,100.00
2022-07-29T01:36:36.143Z,100.00
2022-07-29T01:39:18.137Z,100.00
2022-07-29T01:42:00.284Z,100.00
2022-07-29T01:44:37.591Z,100.00
2022-07-29T01:47:13.488Z,100.00
2022-07-29T01:49:44.031Z,100.00
2022-07-29T01:52:19.969Z,100.00
2022-07-29T01:54:53.263Z,100.00
2022-07-29T01:57:23.273Z,100.00
2022-07-29T01:59:51.990Z,100.00
2022-07-29T02:02:19.915Z,100.00
2022-07-29T02:04:49.678Z,100.00
2022-07-29T02:07:21.932Z,100.00
2022-07-29T02:09:51.087Z,100.00
2022-07-29T02:12:20.256Z,100.00
2022-07-29T02:14:50.846Z,100.00
2022-07-29T02:17:20.849Z,100.00
2022-07-29T02:19:48.569Z,100.00
2022-07-29T02:22:17.504Z,100.00
2022-07-29T02:24:45.638Z,100.00
2022-07-29T02:27:13.153Z,100.00
2022-07-29T02:29:40.804Z,100.00
2022-07-29T02:32:09.482Z,100.00
2022-07-29T02:34:39.026Z,100.00
2022-07-29T02:37:06.356Z,100.00
2022-07-29T02:39:35.783Z,100.00
2022-07-29T02:42:06.689Z,100.00
2022-07-29T02:44:35.958Z,100.00
2022-07-29T02:47:14.467Z,100.00
2022-07-29T02:49:53.508Z,100.00
2022-07-29T02:52:27.341Z,100.00
2022-07-29T02:55:11.722Z,100.00
2022-07-29T02:57:54.549Z,100.00
2022-07-29T03:00:25.121Z,100.00
2022-07-29T03:02:54.794Z,100.00
2022-07-29T03:05:22.841Z,100.00
2022-07-29T03:07:57.353Z,100.00
2022-07-29T03:10:26.687Z,100.00
2022-07-29T03:12:53.966Z,100.00
2022-07-29T03:15:21.758Z,100.00
2022-07-29T03:17:51.733Z,100.00
2022-07-29T03:20:18.806Z,100.00
2022-07-29T03:22:47.978Z,100.00
2022-07-29T03:25:16.618Z,100.00
2022-07-29T03:27:43.961Z,100.00
2022-07-29T03:30:12.001Z,100.00
2022-07-29T03:32:45.346Z,100.00
2022-07-29T03:35:12.429Z,100.00
2022-07-29T03:37:38.929Z,100.00
2022-07-29T03:40:11.116Z,100.00
2022-07-29T03:42:40.766Z,100.00
2022-07-29T03:45:11.084Z,100.00
2022-07-29T03:47:51.089Z,100.00
2022-07-29T03:50:21.114Z,100.00
2022-07-29T03:52:48.612Z,100.00
2022-07-29T03:55:16.043Z,100.00
2022-07-29T03:57:43.596Z,100.00
2022-07-29T04:00:11.278Z,100.00
2022-07-29T04:02:40.334Z,100.00
2022-07-29T04:05:13.556Z,100.00
2022-07-29T04:07:40.935Z,100.00
2022-07-29T04:10:08.794Z,100.00
2022-07-29T04:12:36.064Z,100.00
2022-07-29T04:15:04.360Z,100.00
2022-07-29T04:17:31.182Z,100.00
2022-07-29T04:19:57.646Z,100.00
2022-07-29T04:22:24.142Z,100.00
2022-07-29T04:24:51.849Z,100.00
2022-07-29T04:27:18.318Z,100.00
2022-07-29T04:29:56.377Z,100.00
2022-07-29T04:32:24.355Z,100.00
2022-07-29T04:34:50.818Z,100.00
2022-07-29T04:37:17.286Z,100.00
2022-07-29T04:39:43.771Z,100.00
2022-07-29T04:42:10.261Z,100.00
2022-07-29T04:44:39.496Z,100.00
2022-07-29T04:47:09.013Z,100.00
2022-07-29T04:49:35.492Z,100.00
2022-07-29T04:52:01.957Z,100.00
2022-07-29T04:54:28.436Z,100.00
2022-07-29T04:56:54.893Z,100.00
2022-07-29T04:59:21.404Z,100.00
2022-07-29T05:01:47.949Z,100.00
2022-07-29T05:04:14.759Z,100.00
2022-07-29T05:06:41.403Z,100.00
2022-07-29T05:09:07.872Z,100.00
2022-07-29T05:11:34.329Z,100.00
2022-07-29T05:14:00.772Z,100.00
2022-07-29T05:16:28.660Z,100.00
2022-07-29T05:18:55.118Z,100.00
2022-07-29T05:21:21.588Z,100.00
2022-07-29T05:23:48.181Z,100.00
2022-07-29T05:26:14.645Z,100.00
2022-07-29T05:28:41.089Z,100.00
2022-07-29T05:31:07.607Z,100.00
2022-07-29T05:33:36.023Z,100.00
2022-07-29T05:36:06.518Z,100.00
2022-07-29T05:38:33.651Z,100.00
2022-07-29T05:41:00.659Z,100.00
2022-07-29T05:43:30.857Z,100.00
2022-07-29T05:45:57.834Z,100.00
2022-07-29T05:48:25.245Z,100.00
2022-07-29T05:50:51.695Z,100.00
2022-07-29T05:53:19.140Z,100.00
2022-07-29T05:55:47.510Z,100.00
2022-07-29T05:58:13.994Z,100.00
2022-07-29T06:00:40.878Z,100.00
2022-07-29T06:03:07.581Z,100.00
2022-07-29T06:05:34.062Z,100.00
2022-07-29T06:08:00.544Z,100.00
2022-07-29T06:10:27.793Z,100.00
2022-07-29T06:12:54.669Z,100.00
2022-07-29T06:15:21.794Z,100.00
2022-07-29T06:17:59.412Z,100.00
2022-07-29T06:20:27.732Z,100.00
2022-07-29T06:22:54.518Z,100.00
2022-07-29T06:25:21.133Z,100.00
2022-07-29T06:27:47.570Z,100.00
2022-07-29T06:30:14.258Z,100.00
2022-07-29T06:32:43.184Z,100.00
2022-07-29T06:35:39.490Z,100.00
2022-07-29T06:37:59.627Z,100.00
2022-07-29T06:40:45.463Z,100.00
2022-07-29T06:43:12.142Z,100.00
2022-07-29T06:45:42.153Z,100.00
2022-07-29T06:48:09.028Z,100.00
2022-07-29T06:50:35.576Z,100.00
2022-07-29T06:53:02.041Z,100.00
2022-07-29T06:55:28.529Z,100.00
2022-07-29T06:57:55.051Z,100.00
2022-07-29T07:00:21.554Z,100.00
2022-07-29T07:02:48.121Z,100.00
2022-07-29T07:05:14.683Z,100.00
2022-07-29T07:07:41.157Z,100.00
2022-07-29T07:10:08.106Z,100.00
2022-07-29T07:12:34.612Z,100.00
2022-07-29T07:15:01.123Z,100.00
2022-07-29T07:17:27.633Z,100.00
2022-07-29T07:19:54.100Z,100.00
2022-07-29T07:22:20.586Z,100.00
2022-07-29T07:24:47.061Z,100.00
2022-07-29T07:27:13.546Z,100.00
2022-07-29T07:29:42.070Z,100.00
2022-07-29T07:32:10.570Z,100.00
2022-07-29T07:34:38.728Z,100.00
2022-07-29T07:37:05.396Z,100.00
2022-07-29T07:39:31.904Z,100.00
2022-07-29T07:41:58.402Z,100.00
2022-07-29T07:44:24.884Z,100.00
2022-07-29T07:46:51.369Z,100.00
2022-07-29T07:49:17.949Z,100.00
2022-07-29T07:51:44.508Z,100.00
2022-07-29T07:54:17.920Z,100.00
2022-07-29T07:56:45.028Z,100.00
2022-07-29T07:59:11.534Z,99.97
2022-07-29T08:01:54.666Z,99.10
2022-07-29T08:04:27.477Z,99.78
2022-07-29T08:06:55.252Z,100.00
2022-07-29T08:09:29.207Z,100.00
2022-07-29T08:11:58.525Z,100.00
2022-07-29T08:14:25.003Z,100.00
2022-07-29T08:16:52.383Z,100.00
2022-07-29T08:19:19.275Z,100.00
2022-07-29T08:21:45.859Z,100.00
2022-07-29T08:24:31.091Z,100.00
2022-07-29T08:26:57.556Z,100.00
2022-07-29T08:29:24.036Z,100.00
2022-07-29T08:31:50.849Z,99.58
2022-07-29T08:34:17.537Z,99.79
2022-07-29T08:36:44.138Z,97.91
2022-07-29T08:39:10.585Z,98.58
2022-07-29T08:41:37.597Z,98.80
2022-07-29T08:44:04.472Z,97.36
2022-07-29T08:46:31.064Z,96.94
2022-07-29T08:48:57.715Z,96.22
2022-07-29T08:51:26.398Z,96.23
2022-07-29T08:53:53.946Z,96.75
2022-07-29T08:56:21.410Z,96.22
2022-07-29T08:58:51.897Z,95.12
2022-07-29T09:01:23.686Z,94.43
2022-07-29T09:04:05.531Z,92.57
2022-07-29T09:06:35.199Z,92.39
2022-07-29T09:09:01.954Z,87.31
2022-07-29T09:11:29.421Z,88.84
2022-07-29T09:13:56.002Z,90.06
2022-07-29T09:16:43.715Z,90.76
2022-07-29T09:19:24.577Z,87.81
2022-07-29T09:22:03.115Z,90.30
2022-07-29T09:24:47.737Z,91.94
2022-07-29T09:27:26.917Z,88.06
2022-07-29T09:30:08.286Z,88.98
2022-07-29T09:32:55.122Z,84.40
2022-07-29T09:35:24.073Z,86.81
2022-07-29T09:37:51.098Z,83.09
2022-07-29T09:40:20.956Z,83.99
2022-07-29T09:42:48.395Z,85.88
2022-07-29T09:45:31.694Z,83.42
2022-07-29T09:48:03.953Z,83.58
2022-07-29T09:50:41.123Z,82.96
2022-07-29T09:53:07.959Z,85.37
2022-07-29T09:55:47.755Z,83.41
2022-07-29T09:58:19.615Z,83.13
2022-07-29T10:00:47.359Z,83.38
2022-07-29T10:03:15.058Z,83.72
2022-07-29T10:05:42.974Z,82.89
2022-07-29T10:08:11.569Z,82.51
2022-07-29T10:10:40.210Z,81.24
2022-07-29T10:13:15.771Z,78.38
2022-07-29T10:15:46.067Z,79.72
2022-07-29T10:18:18.320Z,80.90
2022-07-29T10:20:45.402Z,80.02
2022-07-29T10:23:12.078Z,80.88
2022-07-29T10:25:38.580Z,81.64
2022-07-29T10:28:06.849Z,81.77
2022-07-29T10:30:34.264Z,82.94
2022-07-29T10:33:38.620Z,82.28
2022-07-29T10:36:21.055Z,81.13
2022-07-29T10:39:08.945Z,83.22
2022-07-29T10:41:55.477Z,83.14
2022-07-29T10:44:24.650Z,82.55
2022-07-29T10:46:52.777Z,84.18
2022-07-29T10:49:24.693Z,85.07
2022-07-29T10:52:02.566Z,83.96
2022-07-29T10:54:42.318Z,84.44
2022-07-29T10:57:17.273Z,84.44
2022-07-29T10:59:46.174Z,84.44
2022-07-29T11:05:22.072Z,84.59
2022-07-29T11:08:19.907Z,82.69
2022-07-29T11:10:48.706Z,81.81
2022-07-29T11:13:44.067Z,82.35
2022-07-29T11:16:10.707Z,84.69
2022-07-29T11:19:00.068Z,83.46
2022-07-29T11:21:54.169Z,80.53
2022-07-29T11:24:33.121Z,81.50
2022-07-29T11:27:19.838Z,79.90
2022-07-29T11:29:53.359Z,81.03
2022-07-29T11:32:22.636Z,79.37
2022-07-29T11:35:17.116Z,79.38
2022-07-29T11:37:52.137Z,78.24
2022-07-29T11:40:22.922Z,79.51
2022-07-29T11:42:51.794Z,78.87
2022-07-29T11:48:29.126Z,76.44
2022-07-29T11:50:58.348Z,77.19
2022-07-29T11:53:25.708Z,78.93
2022-07-29T11:55:56.452Z,79.49
2022-07-29T11:58:26.191Z,80.13
2022-07-29T12:00:55.230Z,79.49
2022-07-29T12:03:35.043Z,79.55
2022-07-29T12:06:02.411Z,78.06
2022-07-29T12:08:28.954Z,79.21
2022-07-29T12:10:55.500Z,76.76
2022-07-29T12:13:22.631Z,77.06
2022-07-29T12:16:00.172Z,76.98
2022-07-29T12:18:27.746Z,76.98
2022-07-29T12:21:03.667Z,76.32
2022-07-29T12:23:35.010Z,77.18
2022-07-29T12:26:07.212Z,78.22
2022-07-29T12:28:40.195Z,76.91
2022-07-29T12:31:13.820Z,76.58
2022-07-29T12:33:40.627Z,76.86
2022-07-29T12:36:10.458Z,77.95
2022-07-29T12:38:41.854Z,77.04
2022-07-29T12:41:09.428Z,77.72
2022-07-29T12:43:36.089Z,77.72
2022-07-29T12:46:14.559Z,74.40
2022-07-29T12:48:43.661Z,74.75
2022-07-29T12:51:12.676Z,73.24
2022-07-29T12:53:39.617Z,72.52
2022-07-29T12:56:26.592Z,73.27
2022-07-29T12:58:54.102Z,72.55
2022-07-29T13:01:22.653Z,73.09
2022-07-29T13:04:03.831Z,74.44
2022-07-29T13:06:36.199Z,72.94
2022-07-29T13:09:17.796Z,70.79
2022-07-29T13:11:51.037Z,71.40
2022-07-29T13:14:35.918Z,72.55
2022-07-29T13:17:11.131Z,72.91
2022-07-29T13:19:44.781Z,74.31
2022-07-29T13:22:13.628Z,72.53
2022-07-29T13:24:56.876Z,71.75
2022-07-29T13:27:29.445Z,72.83
2022-07-29T13:29:58.538Z,72.49
2022-07-29T13:32:27.752Z,73.99
2022-07-29T13:34:55.680Z,71.80
2022-07-29T13:37:22.151Z,71.69
2022-07-29T13:39:52.842Z,72.40
2022-07-29T13:42:20.276Z,72.59
2022-07-29T13:44:46.863Z,72.42
2022-07-29T13:47:13.806Z,72.19
2022-07-29T13:49:40.268Z,70.13
2022-07-29T13:52:08.431Z,69.59
2022-07-29T13:54:42.026Z,71.58
2022-07-29T13:57:09.331Z,70.96
2022-07-29T13:59:35.836Z,69.75
2022-07-29T14:02:02.728Z,69.11
2022-07-29T14:04:29.548Z,70.58
2022-07-29T14:06:56.094Z,71.70
2022-07-29T14:09:22.606Z,72.96
2022-07-29T14:11:51.091Z,73.79
2022-07-29T14:14:17.859Z,74.05
2022-07-29T14:16:48.973Z,74.41
2022-07-29T14:19:18.559Z,76.05
2022-07-29T14:21:45.632Z,73.86
2022-07-29T14:24:16.278Z,73.90
2022-07-29T14:26:48.166Z,75.10
2022-07-29T14:29:14.693Z,76.50
2022-07-29T14:31:41.396Z,76.99
2022-07-29T14:34:07.877Z,78.22
2022-07-29T14:36:34.337Z,78.23
2022-07-29T14:39:00.785Z,78.95
2022-07-29T14:41:29.119Z,79.61
2022-07-29T14:43:55.649Z,79.64
2022-07-29T14:46:22.143Z,80.33
2022-07-29T14:48:48.733Z,81.82
2022-07-29T14:51:15.349Z,81.27
2022-07-29T14:53:41.837Z,81.47
2022-07-29T14:56:34.186Z,86.56
2022-07-29T14:58:54.939Z,94.53
2022-07-29T15:01:21.581Z,97.53
2022-07-29T15:03:48.087Z,100.00
2022-07-29T15:06:14.658Z,100.00
2022-07-29T15:08:41.240Z,100.00
2022-07-29T15:11:07.780Z,100.00
2022-07-29T15:13:35.297Z,100.00
2022-07-29T15:16:02.133Z,100.00
2022-07-29T15:18:28.671Z,100.00
2022-07-29T15:20:55.158Z,100.00
2022-07-29T15:23:21.638Z,100.00
2022-07-29T15:25:48.135Z,100.00
2022-07-29T15:28:14.621Z,100.00
2022-07-29T15:30:41.859Z,100.00
2022-07-29T15:33:10.227Z,100.00
2022-07-29T15:35:40.075Z,100.00
2022-07-29T15:38:07.630Z,100.00
2022-07-29T15:40:34.315Z,100.00
2022-07-29T15:43:06.655Z,100.00
2022-07-29T15:45:41.447Z,100.00
2022-07-29T15:48:09.621Z,100.00
2022-07-29T15:50:36.258Z,100.00
2022-07-29T15:53:03.456Z,100.00
2022-07-29T15:55:30.013Z,100.00
2022-07-29T15:58:00.469Z,100.00
2022-07-29T16:00:27.297Z,100.00
2022-07-29T16:02:53.818Z,100.00
2022-07-29T16:05:20.352Z,100.00
2022-07-29T16:07:46.917Z,100.00
2022-07-29T16:10:13.599Z,100.00
2022-07-29T16:12:40.174Z,100.00
2022-07-29T16:15:10.195Z,100.00
2022-07-29T16:17:37.872Z,100.00
2022-07-29T16:20:05.816Z,100.00
2022-07-29T16:22:32.425Z,100.00
2022-07-29T16:24:58.929Z,100.00
2022-07-29T16:27:35.354Z,100.00
2022-07-29T16:30:06.920Z,100.00
2022-07-29T16:32:33.655Z,100.00
2022-07-29T16:35:02.262Z,100.00
2022-07-29T16:37:33.444Z,100.00
2022-07-29T16:40:00.023Z,100.00
2022-07-29T16:42:45.400Z,100.00
2022-07-29T16:45:12.923Z,100.00
2022-07-29T16:47:39.443Z,100.00
2022-07-29T16:50:06.396Z,100.00
2022-07-29T16:52:33.602Z,100.00
2022-07-29T16:55:00.165Z,100.00
2022-07-29T16:57:26.666Z,100.00
2022-07-29T16:59:53.187Z,100.00
2022-07-29T17:02:19.844Z,100.00
2022-07-29T17:04:46.349Z,100.00
2022-07-29T17:07:13.015Z,100.00
2022-07-29T17:09:40.482Z,100.00
2022-07-29T17:12:07.249Z,100.00
2022-07-29T17:14:33.704Z,100.00
2022-07-29T17:17:02.625Z,100.00
2022-07-29T17:19:35.340Z,100.00
2022-07-29T17:22:15.618Z,100.00
2022-07-29T17:24:45.736Z,100.00
2022-07-29T17:27:12.306Z,100.00
2022-07-29T17:29:39.255Z,100.00
2022-07-29T17:32:07.726Z,100.00
2022-07-29T17:34:35.526Z,100.00
2022-07-29T17:37:02.246Z,100.00
2022-07-29T17:39:28.827Z,100.00
2022-07-29T17:41:55.580Z,100.00
2022-07-29T17:44:22.063Z,100.00
2022-07-29T17:46:48.621Z,100.00
2022-07-29T17:49:15.245Z,100.00
2022-07-29T17:51:41.768Z,100.00
2022-07-29T17:54:08.317Z,100.00
2022-07-29T17:56:34.840Z,100.00
2022-07-29T17:59:06.323Z,100.00
2022-07-29T18:01:33.919Z,100.00
2022-07-29T18:04:02.720Z,100.00
2022-07-29T18:06:29.500Z,100.00
2022-07-29T18:08:56.156Z,100.00
2022-07-29T18:11:23.403Z,100.00
2022-07-29T18:13:49.887Z,100.00
2022-07-29T18:16:16.558Z,100.00
2022-07-29T18:18:44.358Z,100.00
2022-07-29T18:21:11.117Z,100.00
2022-07-29T18:23:37.850Z,100.00
2022-07-29T18:26:04.395Z,100.00
2022-07-29T18:28:32.667Z,100.00
2022-07-29T18:31:00.190Z,100.00
2022-07-29T18:33:27.062Z,100.00
2022-07-29T18:36:11.080Z,100.00
2022-07-29T18:38:39.252Z,100.00
2022-07-29T18:41:05.805Z,100.00
2022-07-29T18:43:32.370Z,100.00
2022-07-29T18:45:58.845Z,100.00
2022-07-29T18:48:25.386Z,100.00
2022-07-29T18:50:51.905Z,100.00
2022-07-29T18:53:18.421Z,100.00
2022-07-29T18:55:45.243Z,100.00
2022-07-29T18:58:11.736Z,100.00
2022-07-29T19:00:38.607Z,100.00
2022-07-29T19:03:05.148Z,100.00
2022-07-29T19:05:31.808Z,100.00
2022-07-29T19:07:59.002Z,100.00
2022-07-29T19:10:25.602Z,100.00
2022-07-29T19:12:52.184Z,100.00
2022-07-29T19:15:20.343Z,100.00
2022-07-29T19:17:47.912Z,100.00
2022-07-29T19:20:15.149Z,100.00
2022-07-29T19:22:41.762Z,100.00
2022-07-29T19:25:09.225Z,100.00
2022-07-29T19:27:35.706Z,100.00
2022-07-29T19:30:03.413Z,100.00
2022-07-29T19:32:29.936Z,100.00
2022-07-29T19:35:15.052Z,100.00
2022-07-29T19:37:41.501Z,100.00
2022-07-29T19:40:09.725Z,100.00
2022-07-29T19:42:36.165Z,100.00
2022-07-29T19:45:02.705Z,100.00
2022-07-29T19:47:29.175Z,100.00
2022-07-29T19:49:55.616Z,100.00
2022-07-29T19:52:22.064Z,100.00
2022-07-29T19:54:48.501Z,100.00
2022-07-29T19:57:14.975Z,100.00
2022-07-29T19:59:41.417Z,100.00
2022-07-29T20:02:10.785Z,100.00
2022-07-29T20:04:37.818Z,100.00
2022-07-29T20:07:05.486Z,100.00
2022-07-29T20:09:32.071Z,100.00
2022-07-29T20:11:58.919Z,100.00
2022-07-29T20:14:25.398Z,100.00
2022-07-29T20:16:53.980Z,100.00
2022-07-29T20:19:20.453Z,100.00
2022-07-29T20:21:46.980Z,100.00
2022-07-29T20:24:13.524Z,100.00
2022-07-29T20:26:40.040Z,100.00
2022-07-29T20:29:06.568Z,100.00
2022-07-29T20:31:33.177Z,100.00
2022-07-29T20:34:01.458Z,100.00
2022-07-29T20:36:28.299Z,100.00
2022-07-29T20:38:55.424Z,100.00
2022-07-29T20:41:22.557Z,100.00
2022-07-29T20:43:49.845Z,100.00
2022-07-29T20:46:16.530Z,100.00
2022-07-29T20:48:43.220Z,100.00
2022-07-29T20:51:09.845Z,100.00
2022-07-29T20:53:38.424Z,100.00
2022-07-29T20:56:05.521Z,100.00
2022-07-29T20:58:33.974Z,100.00
2022-07-29T21:01:01.145Z,100.00
2022-07-29T21:03:27.670Z,100.00
2022-07-29T21:05:54.223Z,100.00
2022-07-29T21:08:20.824Z,100.00
2022-07-29T21:10:47.283Z,100.00
2022-07-29T21:13:14.342Z,100.00
2022-07-29T21:15:46.146Z,100.00
2022-07-29T21:18:26.989Z,100.00
2022-07-29T21:20:58.139Z,100.00
2022-07-29T21:23:25.277Z,100.00
2022-07-29T21:25:52.816Z,100.00
2022-07-29T21:28:36.784Z,100.00
2022-07-29T21:31:16.089Z,100.00
2022-07-29T21:33:45.886Z,100.00
2022-07-29T21:36:47.892Z,100.00
2022-07-29T21:38:59.780Z,100.00
2022-07-29T21:41:26.624Z,100.00
2022-07-29T21:43:54.578Z,100.00
2022-07-29T21:46:24.829Z,100.00
2022-07-29T21:48:51.452Z,100.00
2022-07-29T21:51:17.942Z,100.00
2022-07-29T21:53:44.385Z,100.00
2022-07-29T21:56:14.620Z,100.00
2022-07-29T21:58:41.726Z,100.00
2022-07-29T22:01:08.259Z,100.00
2022-07-29T22:03:34.752Z,100.00
2022-07-29T22:06:01.218Z,100.00
2022-07-29T22:08:27.648Z,100.00
2022-07-29T22:10:54.449Z,100.00
2022-07-29T22:13:21.014Z,100.00
2022-07-29T22:15:47.495Z,100.00
2022-07-29T22:18:20.767Z,100.00
2022-07-29T22:20:48.339Z,100.00
2022-07-29T22:23:14.841Z,100.00
2022-07-29T22:25:41.318Z,100.00
2022-07-29T22:28:07.788Z,100.00
2022-07-29T22:30:34.280Z,100.00
2022-07-29T22:33:00.787Z,100.00
2022-07-29T22:35:27.277Z,100.00
2022-07-29T22:37:54.178Z,100.00
2022-07-29T22:40:20.708Z,100.00
2022-07-29T22:42:47.221Z,100.00
2022-07-29T22:45:13.721Z,100.00
2022-07-29T22:47:48.040Z,100.00
2022-07-29T22:50:15.785Z,100.00
2022-07-29T22:52:42.348Z,100.00
2022-07-29T22:55:09.377Z,100.00
2022-07-29T22:57:35.875Z,100.00
2022-07-29T23:00:02.448Z,100.00
2022-07-29T23:02:29.178Z,100.00
2022-07-29T23:04:56.080Z,100.00
2022-07-29T23:07:23.399Z,100.00
2022-07-29T23:09:50.161Z,100.00
2022-07-29T23:12:16.589Z,100.00
2022-07-29T23:14:43.798Z,100.00
2022-07-29T23:17:10.330Z,100.00
2022-07-29T23:19:36.857Z,100.00
2022-07-29T23:22:03.624Z,100.00
2022-07-29T23:24:30.318Z,100.00
2022-07-29T23:26:56.810Z,100.00
2022-07-29T23:29:23.312Z,100.00
2022-07-29T23:31:49.827Z,100.00
2022-07-29T23:34:16.380Z,100.00
2022-07-29T23:36:42.933Z,100.00
2022-07-29T23:39:13.367Z,100.00
2022-07-29T23:41:40.286Z,100.00
2022-07-29T23:44:06.970Z,100.00
2022-07-29T23:46:33.567Z,100.00
2022-07-29T23:49:00.190Z,100.00
2022-07-29T23:51:28.929Z,100.00
2022-07-29T23:53:55.759Z,100.00
2022-07-29T23:56:22.256Z,100.00
2022-07-29T23:58:48.727Z,100.00
